createdAt,value
2018-07-29T00:02:09.184Z,7.15
2018-07-29T00:04:37.398Z,7.42
2018-07-29T00:07:05.715Z,7.78
2018-07-29T00:09:33.918Z,7.03
2018-07-29T00:12:02.136Z,6.78
2018-07-29T00:14:30.334Z,7.42
2018-07-29T00:16:58.537Z,7.45
2018-07-29T00:19:26.749Z,8.08
2018-07-29T00:21:54.994Z,6.83
2018-07-29T00:24:23.199Z,7.00
2018-07-29T00:26:51.442Z,7.30
2018-07-29T00:29:19.640Z,6.70
2018-07-29T00:31:47.855Z,6.92
2018-07-29T00:34:16.046Z,7.12
2018-07-29T00:36:44.287Z,7.25
2018-07-29T00:39:12.484Z,6.87
2018-07-29T00:41:40.765Z,7.00
2018-07-29T00:44:08.960Z,6.72
2018-07-29T00:46:37.204Z,7.00
2018-07-29T00:49:05.449Z,7.03
2018-07-29T00:51:33.619Z,7.30
2018-07-29T00:54:01.840Z,7.08
2018-07-29T00:56:30.070Z,7.42
2018-07-29T00:58:58.291Z,7.33
2018-07-29T01:01:26.528Z,7.65
2018-07-29T01:03:54.803Z,7.50
2018-07-29T01:06:23.014Z,7.90
2018-07-29T01:08:51.214Z,7.30
2018-07-29T01:11:19.413Z,7.83
2018-07-29T01:13:47.619Z,7.40
2018-07-29T01:16:15.812Z,8.00
2018-07-29T01:18:44.185Z,8.75
2018-07-29T01:21:12.373Z,8.55
2018-07-29T01:23:40.595Z,8.03
2018-07-29T01:26:08.821Z,8.45
2018-07-29T01:28:37.029Z,8.20
2018-07-29T01:31:05.634Z,8.30
2018-07-29T01:33:33.852Z,7.97
2018-07-29T01:36:02.081Z,7.87
2018-07-29T01:38:30.279Z,7.78
2018-07-29T01:40:58.493Z,8.20
2018-07-29T01:43:26.711Z,7.53
2018-07-29T01:45:54.936Z,8.00
2018-07-29T01:48:23.172Z,8.05
2018-07-29T01:50:51.360Z,8.00
2018-07-29T01:53:19.571Z,8.35
2018-07-29T01:55:47.761Z,7.97
2018-07-29T01:58:15.971Z,8.13
2018-07-29T02:00:44.198Z,8.45
2018-07-29T02:03:12.418Z,7.78
2018-07-29T02:05:40.612Z,7.72
2018-07-29T02:08:08.846Z,7.92
2018-07-29T02:10:37.053Z,7.60
2018-07-29T02:13:05.280Z,7.70
2018-07-29T02:15:33.486Z,7.58
2018-07-29T02:18:01.707Z,7.90
2018-07-29T02:20:29.928Z,7.62
2018-07-29T02:22:58.147Z,7.53
2018-07-29T02:25:26.332Z,7.47
2018-07-29T02:27:54.551Z,8.23
2018-07-29T02:30:22.798Z,7.90
2018-07-29T02:32:51.024Z,7.80
2018-07-29T02:35:19.317Z,7.30
2018-07-29T02:37:47.574Z,8.00
2018-07-29T02:40:15.895Z,8.00
2018-07-29T02:42:44.079Z,8.10
2018-07-29T02:45:12.321Z,8.08
2018-07-29T02:47:40.546Z,7.35
2018-07-29T02:50:08.748Z,7.85
2018-07-29T02:52:36.979Z,7.20
2018-07-29T02:55:05.602Z,7.47
2018-07-29T02:57:33.898Z,7.83
2018-07-29T03:00:02.170Z,7.62
2018-07-29T03:02:30.895Z,7.83
2018-07-29T03:05:00.831Z,7.60
2018-07-29T03:07:29.172Z,7.35
2018-07-29T03:09:57.414Z,7.60
2018-07-29T03:12:25.658Z,6.97
2018-07-29T03:14:53.877Z,7.65
2018-07-29T03:17:22.105Z,7.40
2018-07-29T03:19:50.324Z,7.60
2018-07-29T03:22:18.574Z,7.85
2018-07-29T03:24:46.826Z,7.53
2018-07-29T03:27:15.024Z,7.60
2018-07-29T03:29:43.263Z,7.30
2018-07-29T03:32:11.483Z,7.70
2018-07-29T03:34:39.735Z,7.78
2018-07-29T03:37:07.904Z,7.87
2018-07-29T03:39:36.166Z,8.43
2018-07-29T03:42:04.395Z,7.92
2018-07-29T03:44:32.624Z,7.85
2018-07-29T03:47:00.838Z,7.97
2018-07-29T03:49:29.049Z,8.10
2018-07-29T03:51:57.280Z,7.72
2018-07-29T03:54:25.527Z,8.55
2018-07-29T03:56:53.719Z,8.50
2018-07-29T03:59:21.931Z,9.03
2018-07-29T04:01:50.160Z,7.85
2018-07-29T04:04:18.483Z,10.08
2018-07-29T04:06:46.715Z,8.88
2018-07-29T04:09:14.915Z,8.53
2018-07-29T04:11:43.146Z,8.73
2018-07-29T04:14:11.408Z,9.05
2018-07-29T04:16:39.619Z,9.28
2018-07-29T04:19:08.148Z,9.38
2018-07-29T04:21:37.529Z,9.03
2018-07-29T04:24:06.541Z,8.73
2018-07-29T04:26:34.759Z,8.88
2018-07-29T04:29:03.052Z,8.83
2018-07-29T04:31:31.269Z,8.85
2018-07-29T04:33:59.473Z,9.48
2018-07-29T04:36:27.726Z,8.60
2018-07-29T04:38:56.003Z,8.85
2018-07-29T04:41:24.713Z,8.45
2018-07-29T04:43:52.923Z,9.35
2018-07-29T04:46:21.174Z,7.67
2018-07-29T04:48:49.367Z,8.15
2018-07-29T04:51:17.627Z,8.30
2018-07-29T04:53:45.818Z,7.83
2018-07-29T04:56:14.815Z,7.92
2018-07-29T04:58:43.060Z,8.10
2018-07-29T05:01:11.278Z,8.28
2018-07-29T05:03:39.499Z,9.03
2018-07-29T05:06:07.733Z,8.48
2018-07-29T05:08:36.016Z,10.08
2018-07-29T05:11:04.242Z,8.83
2018-07-29T05:13:32.496Z,8.90
2018-07-29T05:16:00.730Z,8.18
2018-07-29T05:18:28.928Z,8.58
2018-07-29T05:20:57.184Z,8.40
2018-07-29T05:23:25.414Z,8.55
2018-07-29T05:25:53.649Z,8.55
2018-07-29T05:28:21.850Z,8.30
2018-07-29T05:30:50.117Z,8.15
2018-07-29T05:33:18.379Z,7.55
2018-07-29T05:35:46.597Z,7.45
2018-07-29T05:38:14.846Z,7.83
2018-07-29T05:40:43.083Z,7.83
2018-07-29T05:43:11.321Z,7.33
2018-07-29T05:45:39.642Z,7.33
2018-07-29T05:48:07.856Z,7.47
2018-07-29T05:50:36.093Z,7.22
2018-07-29T05:53:04.358Z,7.55
2018-07-29T05:55:32.615Z,7.70
2018-07-29T05:58:00.895Z,7.25
2018-07-29T06:00:29.302Z,7.58
2018-07-29T06:02:57.541Z,7.70
2018-07-29T06:05:25.803Z,7.65
2018-07-29T06:07:54.056Z,7.25
2018-07-29T06:10:22.290Z,8.13
2018-07-29T06:12:50.556Z,7.50
2018-07-29T06:15:18.802Z,8.23
2018-07-29T06:17:47.123Z,8.05
2018-07-29T06:20:15.315Z,8.20
2018-07-29T06:22:43.564Z,8.15
2018-07-29T06:25:11.841Z,8.55
2018-07-29T06:27:40.065Z,8.40
2018-07-29T06:30:08.582Z,8.18
2018-07-29T06:32:36.848Z,8.00
2018-07-29T06:35:05.068Z,7.67
2018-07-29T06:37:33.316Z,7.83
2018-07-29T06:40:01.553Z,7.62
2018-07-29T06:42:29.775Z,7.40
2018-07-29T06:44:58.029Z,7.47
2018-07-29T06:47:26.253Z,8.23
2018-07-29T06:49:54.526Z,7.35
2018-07-29T06:52:22.770Z,7.42
2018-07-29T06:54:50.978Z,7.03
2018-07-29T06:57:19.235Z,7.80
2018-07-29T06:59:47.827Z,7.70
2018-07-29T07:02:16.067Z,7.45
2018-07-29T07:04:44.283Z,8.35
2018-07-29T07:07:12.542Z,8.28
2018-07-29T07:09:40.754Z,8.13
2018-07-29T07:12:08.994Z,7.72
2018-07-29T07:14:37.218Z,7.40
2018-07-29T07:17:05.691Z,7.00
2018-07-29T07:19:33.914Z,7.28
2018-07-29T07:22:02.126Z,7.58
2018-07-29T07:24:30.404Z,7.83
2018-07-29T07:26:58.646Z,7.28
2018-07-29T07:29:26.898Z,7.12
2018-07-29T07:31:55.125Z,7.50
2018-07-29T07:34:23.391Z,7.55
2018-07-29T07:36:51.643Z,7.45
2018-07-29T07:39:19.870Z,7.00
2018-07-29T07:41:48.111Z,7.25
2018-07-29T07:44:16.365Z,7.47
2018-07-29T07:46:44.604Z,7.28
2018-07-29T07:49:12.940Z,7.50
2018-07-29T07:51:41.185Z,8.13
2018-07-29T07:54:09.468Z,8.10
2018-07-29T07:56:37.675Z,7.45
2018-07-29T07:59:05.933Z,8.10
2018-07-29T08:01:34.184Z,7.55
2018-07-29T08:04:02.419Z,7.92
2018-07-29T08:06:30.636Z,7.65
2018-07-29T08:08:58.904Z,6.80
2018-07-29T08:11:27.131Z,6.85
2018-07-29T08:13:55.390Z,6.95
2018-07-29T08:16:23.662Z,6.85
2018-07-29T08:18:51.881Z,7.00
2018-07-29T08:21:20.139Z,7.33
2018-07-29T08:23:48.410Z,7.00
2018-07-29T08:26:16.628Z,7.17
2018-07-29T08:28:44.878Z,7.28
2018-07-29T08:31:13.079Z,7.67
2018-07-29T08:33:41.417Z,7.45
2018-07-29T08:36:09.540Z,7.05
2018-07-29T08:38:37.753Z,6.78
2018-07-29T08:41:07.319Z,6.75
2018-07-29T08:43:35.696Z,6.90
2018-07-29T08:46:03.912Z,6.58
2018-07-29T08:48:32.152Z,6.58
2018-07-29T08:51:00.381Z,7.03
2018-07-29T08:53:28.718Z,6.40
2018-07-29T08:55:57.111Z,7.00
2018-07-29T08:58:25.417Z,6.72
2018-07-29T09:00:53.602Z,7.12
2018-07-29T09:03:21.871Z,6.20
2018-07-29T09:05:50.128Z,6.65
2018-07-29T09:08:18.376Z,5.62
2018-07-29T09:10:47.039Z,5.53
2018-07-29T09:13:15.331Z,5.90
2018-07-29T09:15:43.719Z,6.05
2018-07-29T09:18:11.900Z,5.85
2018-07-29T09:20:40.132Z,5.95
2018-07-29T09:23:08.332Z,5.92
2018-07-29T09:25:36.572Z,5.42
2018-07-29T09:28:04.863Z,5.65
2018-07-29T09:30:33.236Z,6.22
2018-07-29T09:33:01.308Z,6.20
2018-07-29T09:35:29.650Z,6.50
2018-07-29T09:37:57.880Z,6.10
2018-07-29T09:40:26.137Z,5.90
2018-07-29T09:42:54.847Z,6.17
2018-07-29T09:45:23.352Z,6.90
2018-07-29T09:47:53.216Z,6.28
2018-07-29T09:50:21.620Z,7.08
2018-07-29T09:52:50.190Z,6.47
2018-07-29T09:55:18.419Z,6.55
2018-07-29T09:57:46.680Z,6.10
2018-07-29T10:00:14.969Z,6.15
2018-07-29T10:02:43.235Z,6.45
2018-07-29T10:05:11.466Z,6.22
2018-07-29T10:07:39.702Z,6.72
2018-07-29T10:10:07.919Z,6.17
2018-07-29T10:12:36.130Z,6.22
2018-07-29T10:15:04.399Z,5.72
2018-07-29T10:17:32.623Z,6.10
2018-07-29T10:20:00.853Z,5.53
2018-07-29T10:22:29.175Z,6.05
2018-07-29T10:24:57.480Z,5.72
2018-07-29T10:27:25.729Z,5.45
2018-07-29T10:29:53.925Z,5.45
2018-07-29T10:32:22.531Z,5.50
2018-07-29T10:34:50.787Z,5.47
2018-07-29T10:37:19.032Z,5.28
2018-07-29T10:39:47.275Z,4.83
2018-07-29T10:42:15.671Z,4.83
2018-07-29T10:44:44.201Z,5.20
2018-07-29T10:47:12.478Z,5.20
2018-07-29T10:49:40.681Z,5.17
2018-07-29T10:52:08.929Z,5.30
2018-07-29T10:54:37.142Z,5.20
2018-07-29T10:57:05.549Z,5.00
2018-07-29T10:59:33.760Z,4.87
2018-07-29T11:02:02.006Z,5.05
2018-07-29T11:04:30.255Z,4.65
2018-07-29T11:06:58.485Z,5.03
2018-07-29T11:09:26.711Z,4.50
2018-07-29T11:11:54.993Z,5.10
2018-07-29T11:14:23.239Z,4.62
2018-07-29T11:16:51.490Z,4.97
2018-07-29T11:19:19.752Z,4.78
2018-07-29T11:21:48.056Z,4.90
2018-07-29T11:24:16.291Z,5.00
2018-07-29T11:26:44.532Z,4.70
2018-07-29T11:29:12.794Z,5.22
2018-07-29T11:31:41.049Z,4.53
2018-07-29T11:34:09.298Z,4.17
2018-07-29T11:36:37.574Z,4.40
2018-07-29T11:39:07.807Z,4.30
2018-07-29T11:41:36.109Z,4.28
2018-07-29T11:44:04.400Z,3.87
2018-07-29T11:46:32.723Z,4.10
2018-07-29T11:49:00.958Z,4.17
2018-07-29T11:51:29.215Z,4.03
2018-07-29T11:53:57.444Z,4.20
2018-07-29T11:56:25.675Z,3.70
2018-07-29T11:58:53.969Z,3.92
2018-07-29T12:01:22.236Z,4.40
2018-07-29T12:03:50.481Z,3.90
2018-07-29T12:06:18.725Z,3.85
2018-07-29T12:08:46.956Z,3.50
2018-07-29T12:11:15.220Z,3.85
2018-07-29T12:13:43.429Z,3.60
2018-07-29T12:16:11.638Z,3.20
2018-07-29T12:18:39.904Z,3.47
2018-07-29T12:21:08.128Z,3.05
2018-07-29T12:23:36.663Z,3.22
2018-07-29T12:26:04.945Z,3.37
2018-07-29T12:28:33.171Z,3.45
2018-07-29T12:31:01.402Z,3.30
2018-07-29T12:33:29.647Z,3.35
2018-07-29T12:35:57.976Z,3.30
2018-07-29T12:38:26.244Z,3.40
2018-07-29T12:40:54.463Z,3.20
2018-07-29T12:43:23.196Z,2.83
2018-07-29T12:45:51.408Z,2.40
2018-07-29T12:48:19.657Z,2.67
2018-07-29T12:50:47.865Z,2.75
2018-07-29T12:53:16.140Z,2.80
2018-07-29T12:55:44.397Z,2.98
2018-07-29T12:58:12.675Z,3.05
2018-07-29T13:00:40.636Z,2.40
2018-07-29T13:03:08.904Z,2.62
2018-07-29T13:05:37.246Z,2.62
2018-07-29T13:08:05.587Z,2.60
2018-07-29T13:10:34.112Z,2.58
2018-07-29T13:13:02.341Z,2.30
2018-07-29T13:15:30.598Z,2.35
2018-07-29T13:17:58.845Z,2.62
2018-07-29T13:20:27.257Z,2.37
2018-07-29T13:22:55.530Z,2.67
2018-07-29T13:25:23.781Z,2.20
2018-07-29T13:27:51.994Z,2.10
2018-07-29T13:30:20.271Z,2.10
2018-07-29T13:32:49.386Z,2.40
2018-07-29T13:35:17.548Z,2.08
2018-07-29T13:37:45.796Z,2.10
2018-07-29T13:40:14.013Z,2.15
2018-07-29T13:42:42.240Z,2.20
2018-07-29T13:45:11.260Z,2.02
2018-07-29T13:47:39.499Z,2.50
2018-07-29T13:50:09.338Z,2.20
2018-07-29T13:52:37.612Z,2.55
2018-07-29T13:55:06.844Z,2.60
2018-07-29T13:57:35.203Z,2.30
2018-07-29T14:00:04.411Z,2.08
2018-07-29T14:02:32.658Z,2.40
2018-07-29T14:05:00.912Z,2.12
2018-07-29T14:07:29.285Z,2.17
2018-07-29T14:09:57.625Z,2.30
2018-07-29T14:12:25.941Z,2.45
2018-07-29T14:14:54.146Z,2.17
2018-07-29T14:17:22.358Z,2.27
2018-07-29T14:19:50.648Z,1.98
2018-07-29T14:22:18.831Z,1.95
2018-07-29T14:24:47.036Z,2.17
2018-07-29T14:27:15.251Z,2.12
2018-07-29T14:29:43.523Z,2.22
2018-07-29T14:32:11.755Z,2.70
2018-07-29T14:34:39.981Z,2.02
2018-07-29T14:37:08.248Z,2.12
2018-07-29T14:39:36.516Z,1.95
2018-07-29T14:42:04.753Z,2.15
2018-07-29T14:44:32.979Z,2.00
2018-07-29T14:47:01.240Z,2.52
2018-07-29T14:49:29.480Z,2.10
2018-07-29T14:51:57.739Z,2.10
2018-07-29T14:54:25.979Z,2.40
2018-07-29T14:56:54.285Z,2.40
2018-07-29T14:59:22.488Z,2.15
2018-07-29T15:01:50.814Z,2.33
2018-07-29T15:04:19.072Z,2.17
2018-07-29T15:06:47.344Z,2.08
2018-07-29T15:09:15.612Z,2.05
2018-07-29T15:11:43.858Z,2.50
2018-07-29T15:14:12.085Z,2.37
2018-07-29T15:16:40.326Z,2.25
2018-07-29T15:19:08.579Z,2.55
2018-07-29T15:21:36.841Z,2.45
2018-07-29T15:24:05.051Z,2.70
2018-07-29T15:26:33.444Z,2.80
2018-07-29T15:29:01.738Z,2.60
2018-07-29T15:31:29.984Z,2.60
2018-07-29T15:33:58.333Z,3.10
2018-07-29T15:36:26.415Z,2.60
2018-07-29T15:38:54.622Z,2.67
2018-07-29T15:41:22.860Z,3.10
2018-07-29T15:43:51.102Z,3.00
2018-07-29T15:46:19.363Z,2.60
2018-07-29T15:48:47.881Z,2.77
2018-07-29T15:51:16.106Z,3.10
2018-07-29T15:53:44.378Z,2.70
2018-07-29T15:56:12.620Z,3.00
2018-07-29T15:58:40.950Z,3.02
2018-07-29T16:01:09.242Z,2.98
2018-07-29T16:03:37.560Z,2.98
2018-07-29T16:06:06.229Z,2.70
2018-07-29T16:08:34.472Z,3.00
2018-07-29T16:11:02.723Z,2.95
2018-07-29T16:13:31.307Z,2.98
2018-07-29T16:15:59.578Z,3.20
2018-07-29T16:18:27.814Z,3.25
2018-07-29T16:20:56.048Z,2.80
2018-07-29T16:23:24.279Z,3.05
2018-07-29T16:25:52.482Z,2.92
2018-07-29T16:28:20.711Z,2.98
2018-07-29T16:30:48.993Z,3.02
2018-07-29T16:33:17.244Z,3.17
2018-07-29T16:35:45.495Z,3.10
2018-07-29T16:38:13.762Z,2.80
2018-07-29T16:40:42.022Z,3.15
2018-07-29T16:43:10.286Z,3.20
2018-07-29T16:45:38.502Z,3.25
2018-07-29T16:48:06.808Z,3.25
2018-07-29T16:50:35.107Z,3.22
2018-07-29T16:53:03.387Z,2.90
2018-07-29T16:55:31.591Z,2.80
2018-07-29T16:57:59.875Z,3.50
2018-07-29T17:00:28.200Z,3.12
2018-07-29T17:02:56.190Z,3.08
2018-07-29T17:05:24.426Z,3.00
2018-07-29T17:07:52.663Z,3.02
2018-07-29T17:10:21.166Z,3.17
2018-07-29T17:12:49.843Z,3.00
2018-07-29T17:15:18.214Z,3.40
2018-07-29T17:17:46.466Z,2.95
2018-07-29T17:20:14.772Z,3.00
2018-07-29T17:22:42.987Z,3.00
2018-07-29T17:25:11.314Z,3.00
2018-07-29T17:27:39.606Z,3.17
2018-07-29T17:30:07.965Z,3.10
2018-07-29T17:32:36.662Z,3.12
2018-07-29T17:35:04.949Z,3.10
2018-07-29T17:37:33.191Z,3.12
2018-07-29T17:40:01.930Z,3.20
2018-07-29T17:42:30.161Z,3.50
2018-07-29T17:44:58.392Z,3.17
2018-07-29T17:47:26.610Z,3.10
2018-07-29T17:49:54.905Z,3.35
2018-07-29T17:52:23.208Z,3.37
2018-07-29T17:54:51.488Z,3.00
2018-07-29T17:57:19.719Z,3.12
2018-07-29T17:59:48.302Z,3.40
2018-07-29T18:02:16.559Z,3.20
2018-07-29T18:04:44.828Z,3.40
2018-07-29T18:07:13.084Z,3.22
2018-07-29T18:09:41.311Z,2.98
2018-07-29T18:12:09.917Z,3.22
2018-07-29T18:14:38.195Z,3.12
2018-07-29T18:17:06.506Z,3.60
2018-07-29T18:19:35.083Z,3.50
2018-07-29T18:22:03.330Z,3.50
2018-07-29T18:24:31.612Z,3.00
2018-07-29T18:26:59.857Z,3.42
2018-07-29T18:29:28.123Z,3.50
2018-07-29T18:31:56.342Z,3.47
2018-07-29T18:34:24.579Z,3.45
2018-07-29T18:36:52.839Z,3.50
2018-07-29T18:39:21.140Z,3.37
2018-07-29T18:41:49.336Z,3.50
2018-07-29T18:44:17.585Z,3.92
2018-07-29T18:46:45.803Z,3.52
2018-07-29T18:49:14.035Z,3.40
2018-07-29T18:51:42.238Z,3.70
2018-07-29T18:54:10.498Z,3.67
2018-07-29T18:56:38.747Z,3.62
2018-07-29T18:59:06.982Z,3.45
2018-07-29T19:01:35.200Z,3.27
2018-07-29T19:04:03.204Z,3.65
2018-07-29T19:06:31.454Z,3.35
2018-07-29T19:08:59.699Z,3.50
2018-07-29T19:11:27.982Z,4.03
2018-07-29T19:13:56.189Z,4.03
2018-07-29T19:16:24.447Z,3.55
2018-07-29T19:18:52.687Z,3.60
2018-07-29T19:21:20.919Z,3.80
2018-07-29T19:23:49.172Z,3.75
2018-07-29T19:26:17.410Z,3.85
2018-07-29T19:28:45.639Z,3.60
2018-07-29T19:31:13.891Z,3.80
2018-07-29T19:33:42.124Z,3.50
2018-07-29T19:36:10.380Z,4.00
2018-07-29T19:38:38.615Z,4.28
2018-07-29T19:41:07.244Z,4.17
2018-07-29T19:43:35.475Z,4.47
2018-07-29T19:46:03.813Z,4.28
2018-07-29T19:48:32.066Z,4.60
2018-07-29T19:51:00.356Z,4.08
2018-07-29T19:53:28.567Z,3.90
2018-07-29T19:55:56.800Z,3.75
2018-07-29T19:58:25.003Z,4.15
2018-07-29T20:00:53.244Z,4.50
2018-07-29T20:03:21.560Z,4.28
2018-07-29T20:05:49.808Z,3.72
2018-07-29T20:08:18.062Z,3.72
2018-07-29T20:10:46.310Z,4.20
2018-07-29T20:13:14.521Z,3.98
2018-07-29T20:15:42.863Z,3.75
2018-07-29T20:18:11.091Z,5.58
2018-07-29T20:20:39.348Z,4.40
2018-07-29T20:23:08.077Z,4.67
2018-07-29T20:25:36.349Z,4.00
2018-07-29T20:28:04.588Z,3.80
2018-07-29T20:30:32.870Z,4.55
2018-07-29T20:33:01.122Z,3.80
2018-07-29T20:35:29.405Z,3.52
2018-07-29T20:37:57.630Z,3.62
2018-07-29T20:40:25.874Z,3.30
2018-07-29T20:42:54.144Z,4.08
2018-07-29T20:45:22.451Z,3.35
2018-07-29T20:47:50.721Z,3.72
2018-07-29T20:50:18.956Z,3.98
2018-07-29T20:52:47.195Z,3.58
2018-07-29T20:55:15.492Z,3.98
2018-07-29T20:57:43.719Z,4.10
2018-07-29T21:00:11.930Z,3.50
2018-07-29T21:02:40.184Z,3.87
2018-07-29T21:05:08.439Z,3.80
2018-07-29T21:07:36.642Z,3.58
2018-07-29T21:10:05.383Z,3.90
2018-07-29T21:12:33.613Z,3.67
2018-07-29T21:15:01.823Z,3.52
2018-07-29T21:17:30.098Z,3.95
2018-07-29T21:19:58.332Z,3.70
2018-07-29T21:22:26.566Z,3.83
2018-07-29T21:24:54.815Z,3.60
2018-07-29T21:27:23.055Z,3.33
2018-07-29T21:29:51.290Z,3.67
2018-07-29T21:32:19.617Z,3.55
2018-07-29T21:34:47.864Z,3.40
2018-07-29T21:37:16.099Z,3.27
2018-07-29T21:39:44.312Z,3.40
2018-07-29T21:42:12.552Z,3.92
2018-07-29T21:44:40.804Z,4.05
2018-07-29T21:47:09.031Z,3.62
2018-07-29T21:49:37.297Z,3.72
2018-07-29T21:52:05.283Z,3.90
2018-07-29T21:54:33.584Z,3.65
2018-07-29T21:57:01.837Z,3.92
2018-07-29T21:59:30.059Z,3.95
2018-07-29T22:01:58.329Z,4.17
2018-07-29T22:04:26.577Z,3.40
2018-07-29T22:06:54.822Z,4.15
2018-07-29T22:09:23.081Z,3.90
2018-07-29T22:11:51.339Z,4.20
2018-07-29T22:14:19.574Z,4.25
2018-07-29T22:16:47.822Z,4.15
2018-07-29T22:19:16.104Z,5.42
2018-07-29T22:21:44.384Z,5.12
2018-07-29T22:24:12.614Z,4.20
2018-07-29T22:26:46.365Z,3.92
2018-07-29T22:29:19.910Z,4.00
2018-07-29T22:31:53.584Z,3.92
2018-07-29T22:34:21.812Z,3.92
2018-07-29T22:36:50.073Z,4.00
2018-07-29T22:39:21.589Z,4.35
2018-07-29T22:41:49.854Z,3.90
2018-07-29T22:44:18.122Z,4.40
2018-07-29T22:46:46.384Z,4.08
2018-07-29T22:49:14.607Z,3.95
2018-07-29T22:51:42.875Z,4.28
2018-07-29T22:54:11.121Z,4.58
2018-07-29T22:56:39.473Z,4.53
2018-07-29T22:59:08.111Z,3.72
2018-07-29T23:01:36.592Z,3.98
2018-07-29T23:04:04.842Z,4.20
2018-07-29T23:06:33.122Z,4.47
2018-07-29T23:09:01.393Z,4.35
2018-07-29T23:11:29.605Z,4.20
2018-07-29T23:13:57.601Z,3.95
2018-07-29T23:16:25.814Z,4.28
2018-07-29T23:18:54.051Z,4.12
2018-07-29T23:21:22.273Z,4.12
2018-07-29T23:23:50.537Z,4.37
2018-07-29T23:26:18.782Z,4.00
2018-07-29T23:28:47.136Z,4.15
2018-07-29T23:31:15.350Z,4.22
2018-07-29T23:33:43.570Z,4.00
2018-07-29T23:36:11.884Z,3.98
2018-07-29T23:38:40.124Z,4.08
2018-07-29T23:41:08.372Z,4.50
2018-07-29T23:43:36.622Z,4.05
2018-07-29T23:46:04.940Z,3.80
2018-07-29T23:48:33.208Z,3.90
2018-07-29T23:51:01.411Z,4.47
2018-07-29T23:53:29.639Z,4.30
2018-07-29T23:55:57.905Z,4.03
2018-07-29T23:58:26.133Z,4.80
